createdAt,value
2019-01-06T00:02:45.368Z,88.21
2019-01-06T00:05:33.076Z,88.11
2019-01-06T00:08:39.932Z,88.19
2019-01-06T00:14:02.891Z,89.00
2019-01-06T00:19:39.565Z,90.16
2019-01-06T00:22:46.421Z,90.60
2019-01-06T00:28:32.450Z,91.18
2019-01-06T00:31:20.061Z,92.17
2019-01-06T00:34:27.011Z,91.67
2019-01-06T00:40:03.779Z,90.90
2019-01-06T00:42:51.377Z,90.47
2019-01-06T00:48:14.532Z,89.83
2019-01-06T00:51:02.211Z,90.90
2019-01-06T00:53:49.804Z,90.59
2019-01-06T00:56:56.675Z,90.21
2019-01-06T00:59:44.287Z,90.86
2019-01-06T01:02:31.885Z,89.98
2019-01-06T01:08:14.335Z,88.86
2019-01-06T01:11:01.948Z,88.50
2019-01-06T01:14:08.787Z,88.67
2019-01-06T01:16:56.395Z,88.12
2019-01-06T01:20:03.251Z,87.50
2019-01-06T01:25:59.368Z,87.92
2019-01-06T01:29:06.221Z,87.48
2019-01-06T01:31:53.823Z,87.37
2019-01-06T01:37:49.764Z,87.63
2019-01-06T01:43:32.046Z,88.35
2019-01-06T01:46:19.659Z,88.62
2019-01-06T01:52:15.588Z,89.15
2019-01-06T01:55:03.187Z,89.92
2019-01-06T02:00:49.617Z,91.44
2019-01-06T02:03:37.229Z,91.15
2019-01-06T02:06:44.172Z,90.63
2019-01-06T02:09:31.761Z,90.30
2019-01-06T02:12:19.371Z,90.89
2019-01-06T02:15:06.967Z,90.72
2019-01-06T02:18:13.823Z,90.48
2019-01-06T02:21:01.422Z,90.80
2019-01-06T02:23:49.027Z,90.13
2019-01-06T02:29:15.872Z,89.80
2019-01-06T02:32:03.485Z,90.46
2019-01-06T02:34:51.073Z,90.54
2019-01-06T02:37:38.685Z,89.74
2019-01-06T02:40:47.083Z,89.94
2019-01-06T02:43:34.683Z,90.32
2019-01-06T02:46:22.308Z,90.21
2019-01-06T02:51:48.600Z,89.32
2019-01-06T02:54:36.202Z,89.65
2019-01-06T02:57:23.854Z,89.92
2019-01-06T03:00:11.404Z,90.80
2019-01-06T03:02:59.013Z,90.34
2019-01-06T03:05:46.615Z,90.44
2019-01-06T03:08:34.224Z,90.43
2019-01-06T03:11:21.905Z,90.73
2019-01-06T03:14:28.766Z,91.12
2019-01-06T03:17:16.391Z,90.90
2019-01-06T03:20:03.987Z,90.51
2019-01-06T03:22:51.597Z,90.65
2019-01-06T03:25:39.191Z,90.59
2019-01-06T03:28:46.136Z,90.49
2019-01-06T03:31:33.738Z,90.31
2019-01-06T03:37:00.116Z,90.51
2019-01-06T03:39:47.728Z,90.74
2019-01-06T03:42:54.592Z,91.26
2019-01-06T03:46:02.986Z,90.68
2019-01-06T03:49:09.945Z,90.19
2019-01-06T03:51:57.530Z,90.35
2019-01-06T03:54:45.133Z,90.81
2019-01-06T03:57:51.985Z,90.88
2019-01-06T04:00:39.591Z,90.38
2019-01-06T04:06:16.274Z,91.67
2019-01-06T04:09:23.135Z,91.93
2019-01-06T04:12:30.067Z,91.81
2019-01-06T04:15:17.673Z,91.91
2019-01-06T04:18:05.274Z,91.45
2019-01-06T04:20:52.882Z,92.02
2019-01-06T04:24:01.284Z,91.35
2019-01-06T04:27:08.144Z,91.55
2019-01-06T04:29:55.748Z,91.67
2019-01-06T04:35:51.790Z,91.17
2019-01-06T04:38:58.746Z,91.14
2019-01-06T04:41:46.345Z,90.55
2019-01-06T04:44:33.946Z,89.61
2019-01-06T04:50:29.886Z,88.89
2019-01-06T04:53:17.488Z,88.18
2019-01-06T04:56:05.174Z,88.28
2019-01-06T04:58:52.769Z,87.72
2019-01-06T05:01:40.381Z,87.91
2019-01-06T05:04:27.991Z,87.83
2019-01-06T05:07:15.587Z,87.09
2019-01-06T05:12:58.120Z,86.90
2019-01-06T05:16:04.986Z,87.00
2019-01-06T05:18:52.590Z,86.49
2019-01-06T05:21:59.541Z,86.37
2019-01-06T05:25:06.422Z,86.06
2019-01-06T05:28:13.261Z,85.65
2019-01-06T05:31:00.875Z,85.34
2019-01-06T05:33:48.471Z,85.01
2019-01-06T05:42:09.159Z,85.12
2019-01-06T05:45:16.122Z,85.08
2019-01-06T05:51:12.057Z,84.39
2019-01-06T05:53:59.727Z,84.33
2019-01-06T05:57:06.678Z,84.11
2019-01-06T06:00:13.539Z,84.44
2019-01-06T06:03:01.132Z,84.64
2019-01-06T06:05:48.742Z,84.57
2019-01-06T06:08:36.341Z,84.83
2019-01-06T06:11:23.949Z,84.75
2019-01-06T06:14:11.547Z,85.01
2019-01-06T06:16:59.153Z,85.14
2019-01-06T06:22:55.091Z,85.78
2019-01-06T06:25:42.683Z,85.90
2019-01-06T06:28:30.289Z,85.85
2019-01-06T06:31:17.897Z,86.22
2019-01-06T06:37:13.921Z,86.14
2019-01-06T06:40:01.517Z,86.05
2019-01-06T06:48:22.931Z,85.95
2019-01-06T06:51:29.893Z,86.09
2019-01-06T06:54:17.494Z,85.88
2019-01-06T06:57:26.216Z,86.09
2019-01-06T07:00:34.602Z,86.07
2019-01-06T07:03:43.003Z,85.64
2019-01-06T07:06:30.597Z,85.27
2019-01-06T07:09:37.461Z,84.86
2019-01-06T07:12:25.068Z,84.80
2019-01-06T07:21:15.094Z,86.47
2019-01-06T07:24:02.697Z,86.26
2019-01-06T07:27:09.563Z,85.87
2019-01-06T07:32:46.245Z,85.87
2019-01-06T07:35:33.844Z,86.13
2019-01-06T07:38:21.451Z,86.03
2019-01-06T07:43:58.133Z,86.06
2019-01-06T07:46:45.727Z,86.26
2019-01-06T07:52:27.712Z,85.57
2019-01-06T07:55:15.308Z,85.59
2019-01-06T07:58:03.150Z,85.13
2019-01-06T08:00:50.749Z,84.85
2019-01-06T08:06:17.052Z,84.33
2019-01-06T08:09:23.909Z,84.52
2019-01-06T08:15:00.594Z,85.11
2019-01-06T08:17:48.186Z,85.16
2019-01-06T08:20:35.772Z,85.53
2019-01-06T08:23:23.379Z,85.47
2019-01-06T08:26:10.978Z,85.09
2019-01-06T08:29:17.919Z,85.00
2019-01-06T08:32:05.509Z,84.91
2019-01-06T08:34:53.110Z,85.50
2019-01-06T08:38:00.038Z,85.35
2019-01-06T08:43:22.977Z,86.26
2019-01-06T08:46:29.841Z,86.74
2019-01-06T08:52:12.566Z,86.65
2019-01-06T08:55:00.169Z,86.39
2019-01-06T08:57:47.762Z,86.50
2019-01-06T09:03:10.727Z,86.92
2019-01-06T09:05:58.331Z,86.61
2019-01-06T09:08:45.939Z,86.22
2019-01-06T09:11:33.538Z,86.54
2019-01-06T09:14:21.124Z,86.42
2019-01-06T09:17:27.978Z,86.20
2019-01-06T09:25:49.110Z,86.65
2019-01-06T09:28:55.964Z,86.68
2019-01-06T09:32:02.828Z,86.68
2019-01-06T09:35:11.582Z,86.57
2019-01-06T09:37:59.035Z,86.38
2019-01-06T09:43:25.324Z,87.07
2019-01-06T09:48:51.791Z,86.12
2019-01-06T09:54:14.740Z,84.68
2019-01-06T10:02:39.432Z,83.40
2019-01-06T10:05:27.040Z,83.06
2019-01-06T10:11:03.809Z,82.07
2019-01-06T10:13:51.483Z,82.55
2019-01-06T10:16:39.177Z,83.00
2019-01-06T10:19:46.114Z,82.73
2019-01-06T10:22:33.772Z,82.62
2019-01-06T10:25:21.414Z,82.75
2019-01-06T10:28:09.055Z,82.80
2019-01-06T10:30:56.693Z,83.88
2019-01-06T10:36:33.488Z,83.80
2019-01-06T10:39:21.057Z,83.23
2019-01-06T10:44:44.259Z,83.31
2019-01-06T10:50:07.166Z,84.17
2019-01-06T10:52:54.801Z,84.24
2019-01-06T11:01:45.203Z,84.40
2019-01-06T11:04:32.854Z,84.68
2019-01-06T11:07:20.513Z,83.99
2019-01-06T11:13:35.800Z,83.56
2019-01-06T11:16:23.657Z,82.60
2019-01-06T11:19:30.584Z,83.16
2019-01-06T11:22:18.247Z,82.88
2019-01-06T11:25:25.189Z,79.95
2019-01-06T11:28:12.835Z,80.95
2019-01-06T11:31:00.553Z,80.23
2019-01-06T11:36:44.426Z,80.72
2019-01-06T11:39:51.296Z,82.04
2019-01-06T11:42:38.893Z,82.51
2019-01-06T11:45:47.316Z,81.88
2019-01-06T11:48:34.923Z,82.11
2019-01-06T11:51:22.509Z,80.66
2019-01-06T11:56:45.714Z,81.64
2019-01-06T11:59:33.308Z,82.68
2019-01-06T12:02:20.911Z,83.39
2019-01-06T12:05:08.502Z,84.05
2019-01-06T12:15:49.473Z,84.31
2019-01-06T12:18:56.510Z,83.91
2019-01-06T12:22:03.370Z,84.21
2019-01-06T12:27:29.931Z,84.70
2019-01-06T12:30:17.539Z,85.06
2019-01-06T12:33:24.395Z,85.42
2019-01-06T12:36:11.983Z,85.65
2019-01-06T12:38:59.588Z,85.61
2019-01-06T12:42:06.436Z,85.84
2019-01-06T12:45:13.293Z,85.74
2019-01-06T12:48:20.149Z,86.16
2019-01-06T12:53:56.826Z,87.23
2019-01-06T12:57:03.674Z,87.59
2019-01-06T12:59:51.273Z,88.02
2019-01-06T13:02:38.867Z,88.04
2019-01-06T13:05:26.540Z,88.20
2019-01-06T13:08:14.149Z,88.32
2019-01-06T13:11:20.999Z,88.14
2019-01-06T13:14:27.855Z,87.54
2019-01-06T13:17:15.510Z,87.11
2019-01-06T13:22:38.450Z,87.14
2019-01-06T13:25:26.054Z,87.13
2019-01-06T13:28:32.920Z,87.24
2019-01-06T13:31:39.852Z,87.19
2019-01-06T13:34:27.454Z,86.94
2019-01-06T13:37:15.047Z,87.11
2019-01-06T13:42:38.174Z,87.34
2019-01-06T13:45:25.841Z,87.59
2019-01-06T13:48:13.430Z,87.95
2019-01-06T13:51:01.033Z,87.74
2019-01-06T13:53:48.635Z,87.17
2019-01-06T13:56:55.572Z,86.84
2019-01-06T13:59:43.179Z,86.57
2019-01-06T14:02:30.765Z,86.10
2019-01-06T14:07:53.930Z,85.96
2019-01-06T14:13:17.004Z,86.21
2019-01-06T14:16:04.614Z,86.39
2019-01-06T14:18:59.341Z,86.59
2019-01-06T14:22:06.208Z,87.06
2019-01-06T14:24:53.811Z,86.90
2019-01-06T14:27:41.436Z,86.33
2019-01-06T14:30:29.061Z,86.29
2019-01-06T14:33:16.687Z,86.53
2019-01-06T14:36:23.637Z,87.31
2019-01-06T14:42:19.561Z,88.00
2019-01-06T14:45:07.225Z,88.46
2019-01-06T14:48:14.217Z,88.51
2019-01-06T14:51:01.816Z,88.16
2019-01-06T14:53:49.482Z,88.38
2019-01-06T14:56:37.161Z,88.59
2019-01-06T15:02:13.872Z,88.62
2019-01-06T15:05:01.617Z,88.52
2019-01-06T15:07:49.312Z,88.62
2019-01-06T15:10:36.956Z,89.01
2019-01-06T15:13:24.644Z,89.26
2019-01-06T15:16:12.377Z,88.78
2019-01-06T15:22:08.359Z,88.13
2019-01-06T15:24:56.171Z,88.38
2019-01-06T15:27:43.831Z,88.85
2019-01-06T15:30:31.547Z,89.31
2019-01-06T15:33:19.255Z,88.86
2019-01-06T15:36:06.901Z,88.27
2019-01-06T15:38:54.499Z,88.63
2019-01-06T15:42:01.358Z,88.70
2019-01-06T15:44:49.185Z,89.71
2019-01-06T15:47:56.045Z,89.73
2019-01-06T15:50:43.643Z,90.12
2019-01-06T15:53:31.250Z,90.27
2019-01-06T15:56:18.851Z,90.96
2019-01-06T15:59:25.701Z,91.09
2019-01-06T16:02:32.559Z,91.34
2019-01-06T16:05:39.407Z,91.45
2019-01-06T16:08:54.416Z,92.08
2019-01-06T16:14:14.223Z,92.22
2019-01-06T16:19:40.794Z,92.03
2019-01-06T16:22:28.393Z,92.42
2019-01-06T16:36:56.704Z,92.56
2019-01-06T16:39:44.294Z,92.32
2019-01-06T16:42:31.898Z,92.12
2019-01-06T16:45:38.826Z,91.82
2019-01-06T16:48:26.425Z,92.07
2019-01-06T16:51:33.273Z,91.78
2019-01-06T16:54:20.875Z,91.87
2019-01-06T16:57:08.483Z,91.69
2019-01-06T16:59:56.075Z,91.64
2019-01-06T17:05:41.844Z,91.79
2019-01-06T17:08:29.449Z,91.80
2019-01-06T17:11:17.039Z,92.49
2019-01-06T17:14:23.977Z,92.27
2019-01-06T17:17:11.565Z,91.87
2019-01-06T17:19:59.165Z,91.98
2019-01-06T17:22:46.764Z,92.20
2019-01-06T17:25:34.361Z,92.08
2019-01-06T17:31:16.478Z,92.17
2019-01-06T17:34:23.336Z,91.70
2019-01-06T17:37:10.925Z,91.49
2019-01-06T17:39:58.526Z,91.49
2019-01-06T17:42:46.125Z,91.35
2019-01-06T17:45:52.971Z,91.03
2019-01-06T17:48:40.575Z,91.41
2019-01-06T17:51:28.159Z,91.75
2019-01-06T17:54:15.762Z,92.10
2019-01-06T17:57:03.373Z,91.69
2019-01-06T17:59:50.973Z,91.72
2019-01-06T18:02:38.562Z,91.44
2019-01-06T18:05:26.169Z,90.97
2019-01-06T18:08:13.753Z,90.45
2019-01-06T18:11:20.611Z,90.50
2019-01-06T18:16:47.189Z,91.18
2019-01-06T18:19:34.791Z,91.40
2019-01-06T18:22:22.405Z,92.15
2019-01-06T18:28:24.242Z,92.22
2019-01-06T18:31:31.099Z,92.43
2019-01-06T18:34:18.707Z,91.80
2019-01-06T18:37:06.296Z,91.80
2019-01-06T18:42:29.350Z,92.62
2019-01-06T18:45:16.989Z,92.83
2019-01-06T18:50:53.709Z,93.01
2019-01-06T18:54:00.658Z,92.69
2019-01-06T18:56:48.263Z,92.26
2019-01-06T18:59:55.178Z,91.68
2019-01-06T19:02:42.726Z,91.33
2019-01-06T19:05:30.331Z,91.71
2019-01-06T19:08:37.179Z,92.06
2019-01-06T19:11:24.801Z,92.02
2019-01-06T19:14:31.659Z,92.48
2019-01-06T19:17:19.273Z,92.47
2019-01-06T19:22:45.777Z,92.27
2019-01-06T19:28:12.259Z,93.47
2019-01-06T19:31:19.172Z,93.14
2019-01-06T19:34:26.011Z,93.17
2019-01-06T19:37:32.870Z,93.22
2019-01-06T19:40:39.818Z,93.29
2019-01-06T19:43:27.412Z,92.77
2019-01-06T19:46:34.358Z,92.44
2019-01-06T19:52:30.283Z,92.29
2019-01-06T19:55:17.888Z,91.41
2019-01-06T19:58:05.488Z,91.07
2019-01-06T20:00:53.131Z,90.98
2019-01-06T20:07:08.329Z,91.69
2019-01-06T20:10:15.194Z,91.79
2019-01-06T20:16:01.017Z,91.65
2019-01-06T20:18:48.620Z,91.60
2019-01-06T20:21:36.224Z,91.40
2019-01-06T20:24:43.095Z,91.09
2019-01-06T20:30:06.291Z,92.14
2019-01-06T20:35:48.484Z,91.55
2019-01-06T20:38:36.104Z,91.47
2019-01-06T20:41:23.687Z,91.13
2019-01-06T20:44:30.551Z,91.51
2019-01-06T20:47:18.154Z,91.64
2019-01-06T20:53:14.088Z,91.07
2019-01-06T20:56:01.720Z,91.79
2019-01-06T20:59:08.658Z,93.46
2019-01-06T21:10:19.105Z,94.46
2019-01-06T21:13:06.705Z,95.00
2019-01-06T21:15:54.300Z,94.48
2019-01-06T21:18:41.955Z,94.36
2019-01-06T21:24:57.109Z,93.74
2019-01-06T21:28:04.057Z,93.13
2019-01-06T21:30:51.660Z,93.09
2019-01-06T21:33:39.257Z,92.02
2019-01-06T21:36:26.854Z,93.10
2019-01-06T21:39:14.458Z,92.91
2019-01-06T21:42:21.306Z,93.26
2019-01-06T21:45:08.914Z,93.26
2019-01-06T21:47:56.521Z,92.31
2019-01-06T21:53:52.549Z,91.88
2019-01-06T21:56:40.154Z,92.37
2019-01-06T21:59:47.214Z,92.88
2019-01-06T22:05:44.696Z,93.68
2019-01-06T22:08:32.293Z,92.85
2019-01-06T22:11:39.306Z,93.13
2019-01-06T22:14:26.911Z,93.17
2019-01-06T22:17:14.510Z,92.83
2019-01-06T22:22:41.003Z,92.64
2019-01-06T22:25:28.674Z,92.43
2019-01-06T22:28:16.407Z,92.20
2019-01-06T22:31:04.022Z,92.93
2019-01-06T22:33:51.623Z,92.62
2019-01-06T22:36:58.487Z,91.87
2019-01-06T22:42:24.983Z,92.15
2019-01-06T22:45:12.670Z,91.92
2019-01-06T22:48:19.634Z,91.83
2019-01-06T22:54:02.036Z,92.75
2019-01-06T22:56:49.638Z,92.56
2019-01-06T23:02:35.441Z,91.79
2019-01-06T23:05:42.306Z,90.98
2019-01-06T23:08:29.907Z,91.43
2019-01-06T23:13:53.054Z,90.92
2019-01-06T23:21:58.670Z,91.46
2019-01-06T23:25:05.613Z,92.28
2019-01-06T23:27:53.213Z,91.62
2019-01-06T23:33:16.024Z,90.99
2019-01-06T23:38:58.262Z,91.30
2019-01-06T23:41:45.863Z,91.74
2019-01-06T23:44:33.459Z,92.17
2019-01-06T23:47:21.069Z,92.33
2019-01-06T23:50:09.149Z,92.10
2019-01-06T23:52:56.755Z,92.05
2019-01-06T23:55:44.359Z,92.36
2019-01-06T23:58:31.957Z,92.80
